sensor_id;sensor_type;location;lat;lon;timestamp;temperature;humidity
68922;DHT22;55959;51.244;5.724;2023-07-31T00:01:19;20.30;74.30
68922;DHT22;55959;51.244;5.724;2023-07-31T00:03:45;20.30;74.20
68922;DHT22;55959;51.244;5.724;2023-07-31T00:06:12;20.30;75.00
68922;DHT22;55959;51.244;5.724;2023-07-31T00:08:38;20.30;74.00
68922;DHT22;55959;51.244;5.724;2023-07-31T00:11:03;20.30;74.10
68922;DHT22;55959;51.244;5.724;2023-07-31T00:13:29;20.30;74.00
68922;DHT22;55959;51.244;5.724;2023-07-31T00:15:55;20.20;73.80
68922;DHT22;55959;51.244;5.724;2023-07-31T00:18:20;20.30;73.80
68922;DHT22;55959;51.244;5.724;2023-07-31T00:20:46;20.30;73.80
68922;DHT22;55959;51.244;5.724;2023-07-31T00:23:12;20.20;73.60
68922;DHT22;55959;51.244;5.724;2023-07-31T00:25:39;20.30;73.60
68922;DHT22;55959;51.244;5.724;2023-07-31T00:28:05;20.20;73.30
68922;DHT22;55959;51.244;5.724;2023-07-31T00:30:31;20.20;73.30
68922;DHT22;55959;51.244;5.724;2023-07-31T00:32:57;20.20;73.20
68922;DHT22;55959;51.244;5.724;2023-07-31T00:35:22;20.20;73.20
68922;DHT22;55959;51.244;5.724;2023-07-31T00:37:49;20.20;73.10
68922;DHT22;55959;51.244;5.724;2023-07-31T00:40:15;20.20;73.00
68922;DHT22;55959;51.244;5.724;2023-07-31T00:42:40;20.20;73.00
68922;DHT22;55959;51.244;5.724;2023-07-31T00:45:06;20.20;72.90
68922;DHT22;55959;51.244;5.724;2023-07-31T00:47:32;20.20;72.80
68922;DHT22;55959;51.244;5.724;2023-07-31T00:49:58;20.20;72.60
68922;DHT22;55959;51.244;5.724;2023-07-31T00:52:25;20.20;72.60
68922;DHT22;55959;51.244;5.724;2023-07-31T00:54:51;20.20;72.60
68922;DHT22;55959;51.244;5.724;2023-07-31T00:57:16;20.10;72.40
68922;DHT22;55959;51.244;5.724;2023-07-31T00:59:42;20.20;72.40
68922;DHT22;55959;51.244;5.724;2023-07-31T01:02:08;20.10;72.30
68922;DHT22;55959;51.244;5.724;2023-07-31T01:04:34;20.10;72.20
68922;DHT22;55959;51.244;5.724;2023-07-31T01:07:22;20.10;72.20
68922;DHT22;55959;51.244;5.724;2023-07-31T01:13:07;20.10;72.00
68922;DHT22;55959;51.244;5.724;2023-07-31T01:15:33;20.10;72.10
68922;DHT22;55959;51.244;5.724;2023-07-31T01:17:59;20.10;72.10
68922;DHT22;55959;51.244;5.724;2023-07-31T01:20:26;20.10;72.10
68922;DHT22;55959;51.244;5.724;2023-07-31T01:29:01;20.10;71.80
68922;DHT22;55959;51.244;5.724;2023-07-31T01:31:30;20.10;71.80
68922;DHT22;55959;51.244;5.724;2023-07-31T01:34:01;20.00;71.60
68922;DHT22;55959;51.244;5.724;2023-07-31T01:36:27;20.00;71.60
68922;DHT22;55959;51.244;5.724;2023-07-31T01:38:58;20.00;71.60
68922;DHT22;55959;51.244;5.724;2023-07-31T01:41:25;20.00;71.60
68922;DHT22;55959;51.244;5.724;2023-07-31T01:43:51;20.00;71.60
68922;DHT22;55959;51.244;5.724;2023-07-31T01:46:17;20.00;71.60
68922;DHT22;55959;51.244;5.724;2023-07-31T01:48:43;20.00;71.60
68922;DHT22;55959;51.244;5.724;2023-07-31T01:51:08;20.00;71.70
68922;DHT22;55959;51.244;5.724;2023-07-31T01:53:34;20.00;71.80
68922;DHT22;55959;51.244;5.724;2023-07-31T01:56:00;20.00;71.80
68922;DHT22;55959;51.244;5.724;2023-07-31T01:58:26;20.00;71.80
68922;DHT22;55959;51.244;5.724;2023-07-31T02:00:52;20.00;71.80
68922;DHT22;55959;51.244;5.724;2023-07-31T02:03:17;20.00;72.00
68922;DHT22;55959;51.244;5.724;2023-07-31T02:05:48;20.00;72.10
68922;DHT22;55959;51.244;5.724;2023-07-31T02:08:14;20.00;72.20
68922;DHT22;55959;51.244;5.724;2023-07-31T02:10:41;20.00;72.20
68922;DHT22;55959;51.244;5.724;2023-07-31T02:13:07;20.00;72.40
68922;DHT22;55959;51.244;5.724;2023-07-31T02:15:33;20.00;72.40
68922;DHT22;55959;51.244;5.724;2023-07-31T02:18:00;20.00;72.40
68922;DHT22;55959;51.244;5.724;2023-07-31T02:20:25;20.00;72.50
68922;DHT22;55959;51.244;5.724;2023-07-31T02:22:51;20.10;72.50
68922;DHT22;55959;51.244;5.724;2023-07-31T02:25:18;20.00;72.40
68922;DHT22;55959;51.244;5.724;2023-07-31T02:27:44;20.10;72.60
68922;DHT22;55959;51.244;5.724;2023-07-31T02:30:10;20.10;72.60
68922;DHT22;55959;51.244;5.724;2023-07-31T02:32:36;20.10;72.60
68922;DHT22;55959;51.244;5.724;2023-07-31T02:35:02;20.10;72.60
68922;DHT22;55959;51.244;5.724;2023-07-31T02:37:28;20.10;72.70
68922;DHT22;55959;51.244;5.724;2023-07-31T02:39:55;20.10;72.80
68922;DHT22;55959;51.244;5.724;2023-07-31T02:42:21;20.10;72.70
68922;DHT22;55959;51.244;5.724;2023-07-31T02:44:46;20.20;72.80
68922;DHT22;55959;51.244;5.724;2023-07-31T02:47:12;20.10;72.70
68922;DHT22;55959;51.244;5.724;2023-07-31T02:49:38;20.10;72.50
68922;DHT22;55959;51.244;5.724;2023-07-31T02:52:04;20.20;72.60
68922;DHT22;55959;51.244;5.724;2023-07-31T02:54:29;20.20;72.60
68922;DHT22;55959;51.244;5.724;2023-07-31T02:56:55;20.20;72.60
68922;DHT22;55959;51.244;5.724;2023-07-31T02:59:21;20.10;72.40
68922;DHT22;55959;51.244;5.724;2023-07-31T03:01:47;20.20;72.60
68922;DHT22;55959;51.244;5.724;2023-07-31T03:04:12;20.20;72.60
68922;DHT22;55959;51.244;5.724;2023-07-31T03:06:38;20.20;72.60
68922;DHT22;55959;51.244;5.724;2023-07-31T03:09:04;20.20;72.60
68922;DHT22;55959;51.244;5.724;2023-07-31T03:11:30;20.10;72.80
68922;DHT22;55959;51.244;5.724;2023-07-31T03:13:56;20.20;72.80
68922;DHT22;55959;51.244;5.724;2023-07-31T03:16:22;20.20;72.80
68922;DHT22;55959;51.244;5.724;2023-07-31T03:18:48;20.20;72.80
68922;DHT22;55959;51.244;5.724;2023-07-31T03:21:15;20.20;72.80
68922;DHT22;55959;51.244;5.724;2023-07-31T03:23:40;20.20;72.80
68922;DHT22;55959;51.244;5.724;2023-07-31T03:26:09;20.20;72.80
68922;DHT22;55959;51.244;5.724;2023-07-31T03:28:35;20.20;72.80
68922;DHT22;55959;51.244;5.724;2023-07-31T03:31:00;20.20;72.80
68922;DHT22;55959;51.244;5.724;2023-07-31T03:33:27;20.20;72.70
68922;DHT22;55959;51.244;5.724;2023-07-31T03:35:53;20.30;72.80
68922;DHT22;55959;51.244;5.724;2023-07-31T03:38:19;20.20;72.70
68922;DHT22;55959;51.244;5.724;2023-07-31T03:40:45;20.30;72.80
68922;DHT22;55959;51.244;5.724;2023-07-31T03:43:11;20.30;72.80
68922;DHT22;55959;51.244;5.724;2023-07-31T03:45:37;20.20;72.70
68922;DHT22;55959;51.244;5.724;2023-07-31T03:48:04;20.30;72.80
68922;DHT22;55959;51.244;5.724;2023-07-31T03:50:30;20.30;72.80
68922;DHT22;55959;51.244;5.724;2023-07-31T03:52:56;20.30;72.80
68922;DHT22;55959;51.244;5.724;2023-07-31T03:55:21;20.30;72.80
68922;DHT22;55959;51.244;5.724;2023-07-31T03:57:47;20.30;72.80
68922;DHT22;55959;51.244;5.724;2023-07-31T04:00:13;20.30;72.90
68922;DHT22;55959;51.244;5.724;2023-07-31T04:02:39;20.30;73.00
68922;DHT22;55959;51.244;5.724;2023-07-31T04:05:05;20.30;73.00
68922;DHT22;55959;51.244;5.724;2023-07-31T04:07:31;20.30;73.00
68922;DHT22;55959;51.244;5.724;2023-07-31T04:09:57;20.30;73.10
68922;DHT22;55959;51.244;5.724;2023-07-31T04:12:23;20.30;73.10
68922;DHT22;55959;51.244;5.724;2023-07-31T04:14:49;20.30;73.20
68922;DHT22;55959;51.244;5.724;2023-07-31T04:17:15;20.30;73.20
68922;DHT22;55959;51.244;5.724;2023-07-31T04:19:40;20.30;73.30
68922;DHT22;55959;51.244;5.724;2023-07-31T04:22:06;20.40;73.40
68922;DHT22;55959;51.244;5.724;2023-07-31T04:24:33;20.30;73.40
68922;DHT22;55959;51.244;5.724;2023-07-31T04:26:59;20.40;74.30
68922;DHT22;55959;51.244;5.724;2023-07-31T04:29:25;20.40;73.40
68922;DHT22;55959;51.244;5.724;2023-07-31T04:31:51;20.40;73.40
68922;DHT22;55959;51.244;5.724;2023-07-31T04:34:17;20.40;73.40
68922;DHT22;55959;51.244;5.724;2023-07-31T04:36:42;20.40;73.40
68922;DHT22;55959;51.244;5.724;2023-07-31T04:39:08;20.40;73.40
68922;DHT22;55959;51.244;5.724;2023-07-31T04:41:34;20.40;73.40
68922;DHT22;55959;51.244;5.724;2023-07-31T04:44:00;20.40;73.40
68922;DHT22;55959;51.244;5.724;2023-07-31T04:46:26;20.40;73.50
68922;DHT22;55959;51.244;5.724;2023-07-31T04:48:52;20.40;73.50
68922;DHT22;55959;51.244;5.724;2023-07-31T04:51:17;20.40;73.50
68922;DHT22;55959;51.244;5.724;2023-07-31T04:53:43;20.40;73.50
68922;DHT22;55959;51.244;5.724;2023-07-31T04:56:09;20.40;73.60
68922;DHT22;55959;51.244;5.724;2023-07-31T04:58:34;20.50;73.80
68922;DHT22;55959;51.244;5.724;2023-07-31T05:01:00;20.40;73.80
68922;DHT22;55959;51.244;5.724;2023-07-31T05:03:26;20.40;73.80
68922;DHT22;55959;51.244;5.724;2023-07-31T05:05:51;20.50;73.90
68922;DHT22;55959;51.244;5.724;2023-07-31T05:08:17;20.50;74.00
68922;DHT22;55959;51.244;5.724;2023-07-31T05:10:43;20.50;74.00
68922;DHT22;55959;51.244;5.724;2023-07-31T05:13:09;20.50;73.90
68922;DHT22;55959;51.244;5.724;2023-07-31T05:15:35;20.50;74.00
68922;DHT22;55959;51.244;5.724;2023-07-31T05:18:00;20.50;74.00
68922;DHT22;55959;51.244;5.724;2023-07-31T05:20:26;20.50;74.10
68922;DHT22;55959;51.244;5.724;2023-07-31T05:22:53;20.50;74.20
68922;DHT22;55959;51.244;5.724;2023-07-31T05:25:19;20.50;74.30
68922;DHT22;55959;51.244;5.724;2023-07-31T05:27:45;20.50;74.40
68922;DHT22;55959;51.244;5.724;2023-07-31T05:30:11;20.50;74.40
68922;DHT22;55959;51.244;5.724;2023-07-31T05:32:37;20.50;74.40
68922;DHT22;55959;51.244;5.724;2023-07-31T05:35:04;20.50;74.60
68922;DHT22;55959;51.244;5.724;2023-07-31T05:37:30;20.50;74.60
68922;DHT22;55959;51.244;5.724;2023-07-31T05:39:55;20.50;74.60
68922;DHT22;55959;51.244;5.724;2023-07-31T05:42:21;20.50;74.70
68922;DHT22;55959;51.244;5.724;2023-07-31T05:44:47;20.40;74.70
68922;DHT22;55959;51.244;5.724;2023-07-31T05:47:13;20.40;74.80
68922;DHT22;55959;51.244;5.724;2023-07-31T05:49:38;20.40;74.90
68922;DHT22;55959;51.244;5.724;2023-07-31T05:52:04;20.40;75.00
68922;DHT22;55959;51.244;5.724;2023-07-31T05:54:31;20.40;75.00
68922;DHT22;55959;51.244;5.724;2023-07-31T05:56:57;20.40;75.00
68922;DHT22;55959;51.244;5.724;2023-07-31T05:59:23;20.40;75.10
68922;DHT22;55959;51.244;5.724;2023-07-31T06:01:49;20.40;75.20
68922;DHT22;55959;51.244;5.724;2023-07-31T06:04:14;20.40;75.40
68922;DHT22;55959;51.244;5.724;2023-07-31T06:06:40;20.40;75.40
68922;DHT22;55959;51.244;5.724;2023-07-31T06:09:06;20.30;75.40
68922;DHT22;55959;51.244;5.724;2023-07-31T06:11:33;20.30;75.50
68922;DHT22;55959;51.244;5.724;2023-07-31T06:14:00;20.40;75.60
68922;DHT22;55959;51.244;5.724;2023-07-31T06:16:26;20.40;75.70
68922;DHT22;55959;51.244;5.724;2023-07-31T06:18:52;20.30;75.70
68922;DHT22;55959;51.244;5.724;2023-07-31T06:21:18;20.30;75.60
68922;DHT22;55959;51.244;5.724;2023-07-31T06:23:44;20.30;75.60
68922;DHT22;55959;51.244;5.724;2023-07-31T06:26:09;20.30;75.70
68922;DHT22;55959;51.244;5.724;2023-07-31T06:28:35;20.30;75.80
68922;DHT22;55959;51.244;5.724;2023-07-31T06:31:01;20.30;75.80
68922;DHT22;55959;51.244;5.724;2023-07-31T06:33:27;20.30;76.00
68922;DHT22;55959;51.244;5.724;2023-07-31T06:35:53;20.30;76.00
68922;DHT22;55959;51.244;5.724;2023-07-31T06:38:24;20.30;76.00
68922;DHT22;55959;51.244;5.724;2023-07-31T06:40:51;20.30;76.00
68922;DHT22;55959;51.244;5.724;2023-07-31T06:43:16;20.30;76.00
68922;DHT22;55959;51.244;5.724;2023-07-31T06:45:42;20.30;76.10
68922;DHT22;55959;51.244;5.724;2023-07-31T06:48:08;20.30;76.10
68922;DHT22;55959;51.244;5.724;2023-07-31T06:50:34;20.30;76.10
68922;DHT22;55959;51.244;5.724;2023-07-31T06:52:59;20.30;76.30
68922;DHT22;55959;51.244;5.724;2023-07-31T06:55:26;20.20;76.30
68922;DHT22;55959;51.244;5.724;2023-07-31T06:57:54;20.20;76.30
68922;DHT22;55959;51.244;5.724;2023-07-31T07:00:22;20.20;76.30
68922;DHT22;55959;51.244;5.724;2023-07-31T07:02:49;20.20;76.20
68922;DHT22;55959;51.244;5.724;2023-07-31T07:05:15;20.20;76.20
68922;DHT22;55959;51.244;5.724;2023-07-31T07:07:41;20.20;76.20
68922;DHT22;55959;51.244;5.724;2023-07-31T07:10:08;20.20;76.20
68922;DHT22;55959;51.244;5.724;2023-07-31T07:12:34;20.10;76.20
68922;DHT22;55959;51.244;5.724;2023-07-31T07:15:01;20.10;76.10
68922;DHT22;55959;51.244;5.724;2023-07-31T07:17:28;20.10;76.10
68922;DHT22;55959;51.244;5.724;2023-07-31T07:19:58;20.10;76.80
68922;DHT22;55959;51.244;5.724;2023-07-31T07:22:25;20.10;76.30
68922;DHT22;55959;51.244;5.724;2023-07-31T07:24:52;20.10;76.20
68922;DHT22;55959;51.244;5.724;2023-07-31T07:27:18;20.00;77.00
68922;DHT22;55959;51.244;5.724;2023-07-31T07:29:45;20.10;76.40
68922;DHT22;55959;51.244;5.724;2023-07-31T07:32:11;20.00;76.30
68922;DHT22;55959;51.244;5.724;2023-07-31T07:34:37;20.00;76.40
68922;DHT22;55959;51.244;5.724;2023-07-31T07:37:03;20.00;76.60
68922;DHT22;55959;51.244;5.724;2023-07-31T07:39:29;20.00;76.60
68922;DHT22;55959;51.244;5.724;2023-07-31T07:41:55;20.00;76.80
68922;DHT22;55959;51.244;5.724;2023-07-31T07:44:21;20.00;76.90
68922;DHT22;55959;51.244;5.724;2023-07-31T07:46:47;20.00;76.90
68922;DHT22;55959;51.244;5.724;2023-07-31T07:49:12;20.00;77.00
68922;DHT22;55959;51.244;5.724;2023-07-31T07:51:38;20.00;77.10
68922;DHT22;55959;51.244;5.724;2023-07-31T07:54:04;20.00;77.30
68922;DHT22;55959;51.244;5.724;2023-07-31T07:56:30;20.00;77.40
68922;DHT22;55959;51.244;5.724;2023-07-31T07:58:55;20.00;77.50
68922;DHT22;55959;51.244;5.724;2023-07-31T08:01:21;20.00;77.60
68922;DHT22;55959;51.244;5.724;2023-07-31T08:03:47;20.00;77.60
68922;DHT22;55959;51.244;5.724;2023-07-31T08:06:14;20.10;77.60
68922;DHT22;55959;51.244;5.724;2023-07-31T08:08:40;20.00;77.50
68922;DHT22;55959;51.244;5.724;2023-07-31T08:11:06;20.00;77.40
68922;DHT22;55959;51.244;5.724;2023-07-31T08:13:31;20.10;77.40
68922;DHT22;55959;51.244;5.724;2023-07-31T08:15:57;20.10;77.50
68922;DHT22;55959;51.244;5.724;2023-07-31T08:18:23;20.10;77.60
68922;DHT22;55959;51.244;5.724;2023-07-31T08:20:49;20.10;77.60
68922;DHT22;55959;51.244;5.724;2023-07-31T08:23:14;20.10;77.60
68922;DHT22;55959;51.244;5.724;2023-07-31T08:25:40;20.10;77.60
68922;DHT22;55959;51.244;5.724;2023-07-31T08:28:07;20.10;77.60
68922;DHT22;55959;51.244;5.724;2023-07-31T08:30:33;20.10;77.60
68922;DHT22;55959;51.244;5.724;2023-07-31T08:32:59;20.10;77.60
68922;DHT22;55959;51.244;5.724;2023-07-31T08:35:26;20.10;77.70
68922;DHT22;55959;51.244;5.724;2023-07-31T08:37:53;20.10;77.80
68922;DHT22;55959;51.244;5.724;2023-07-31T08:40:19;20.20;77.80
68922;DHT22;55959;51.244;5.724;2023-07-31T08:42:48;20.20;77.80
68922;DHT22;55959;51.244;5.724;2023-07-31T08:45:18;20.20;77.60
68922;DHT22;55959;51.244;5.724;2023-07-31T08:47:46;20.20;77.70
68922;DHT22;55959;51.244;5.724;2023-07-31T08:50:14;20.20;77.70
68922;DHT22;55959;51.244;5.724;2023-07-31T08:52:40;20.20;77.80
68922;DHT22;55959;51.244;5.724;2023-07-31T08:55:07;20.20;77.80
68922;DHT22;55959;51.244;5.724;2023-07-31T08:57:36;20.20;77.60
68922;DHT22;55959;51.244;5.724;2023-07-31T09:00:05;20.20;77.60
68922;DHT22;55959;51.244;5.724;2023-07-31T09:05:45;20.20;77.70
68922;DHT22;55959;51.244;5.724;2023-07-31T09:08:18;20.20;77.80
68922;DHT22;55959;51.244;5.724;2023-07-31T09:10:46;20.20;77.90
68922;DHT22;55959;51.244;5.724;2023-07-31T09:13:12;20.20;78.00
68922;DHT22;55959;51.244;5.724;2023-07-31T09:15:44;20.20;78.10
68922;DHT22;55959;51.244;5.724;2023-07-31T09:18:11;20.20;78.10
68922;DHT22;55959;51.244;5.724;2023-07-31T09:20:37;20.30;78.20
68922;DHT22;55959;51.244;5.724;2023-07-31T09:23:10;20.30;78.20
68922;DHT22;55959;51.244;5.724;2023-07-31T09:25:38;20.30;78.20
68922;DHT22;55959;51.244;5.724;2023-07-31T09:28:09;20.30;78.30
68922;DHT22;55959;51.244;5.724;2023-07-31T09:30:50;20.30;78.30
68922;DHT22;55959;51.244;5.724;2023-07-31T09:33:17;20.40;78.20
68922;DHT22;55959;51.244;5.724;2023-07-31T09:35:44;20.40;78.10
68922;DHT22;55959;51.244;5.724;2023-07-31T09:38:12;20.40;78.00
68922;DHT22;55959;51.244;5.724;2023-07-31T09:40:40;20.50;78.00
68922;DHT22;55959;51.244;5.724;2023-07-31T09:43:08;20.50;78.10
68922;DHT22;55959;51.244;5.724;2023-07-31T09:45:43;20.60;78.30
68922;DHT22;55959;51.244;5.724;2023-07-31T09:48:13;20.60;78.00
68922;DHT22;55959;51.244;5.724;2023-07-31T09:50:45;20.60;77.70
68922;DHT22;55959;51.244;5.724;2023-07-31T09:53:12;20.60;77.50
68922;DHT22;55959;51.244;5.724;2023-07-31T09:55:40;20.70;77.30
68922;DHT22;55959;51.244;5.724;2023-07-31T09:58:09;20.70;77.00
68922;DHT22;55959;51.244;5.724;2023-07-31T10:00:39;20.70;77.00
68922;DHT22;55959;51.244;5.724;2023-07-31T10:03:06;20.80;76.80
68922;DHT22;55959;51.244;5.724;2023-07-31T10:05:34;20.80;76.60
68922;DHT22;55959;51.244;5.724;2023-07-31T10:08:01;20.80;76.40
68922;DHT22;55959;51.244;5.724;2023-07-31T10:10:28;20.80;76.20
68922;DHT22;55959;51.244;5.724;2023-07-31T10:12:56;20.80;76.20
68922;DHT22;55959;51.244;5.724;2023-07-31T10:15:22;20.80;76.00
68922;DHT22;55959;51.244;5.724;2023-07-31T10:17:49;20.80;75.70
68922;DHT22;55959;51.244;5.724;2023-07-31T10:20:16;20.90;75.60
68922;DHT22;55959;51.244;5.724;2023-07-31T10:22:45;20.90;75.60
68922;DHT22;55959;51.244;5.724;2023-07-31T10:25:12;20.90;75.70
68922;DHT22;55959;51.244;5.724;2023-07-31T10:27:41;20.90;75.60
68922;DHT22;55959;51.244;5.724;2023-07-31T10:30:18;20.90;75.50
68922;DHT22;55959;51.244;5.724;2023-07-31T10:32:46;20.90;75.50
68922;DHT22;55959;51.244;5.724;2023-07-31T10:35:14;20.90;75.70
68922;DHT22;55959;51.244;5.724;2023-07-31T10:37:42;20.90;75.70
68922;DHT22;55959;51.244;5.724;2023-07-31T10:40:19;20.90;75.80
68922;DHT22;55959;51.244;5.724;2023-07-31T10:42:55;21.00;75.90
68922;DHT22;55959;51.244;5.724;2023-07-31T10:45:39;21.00;75.90
68922;DHT22;55959;51.244;5.724;2023-07-31T10:48:15;21.10;75.60
68922;DHT22;55959;51.244;5.724;2023-07-31T10:50:50;21.10;75.60
68922;DHT22;55959;51.244;5.724;2023-07-31T10:53:23;21.10;75.30
68922;DHT22;55959;51.244;5.724;2023-07-31T10:55:50;21.10;75.20
68922;DHT22;55959;51.244;5.724;2023-07-31T10:58:19;21.10;75.00
68922;DHT22;55959;51.244;5.724;2023-07-31T11:00:46;21.10;74.80
68922;DHT22;55959;51.244;5.724;2023-07-31T11:03:18;21.20;74.90
68922;DHT22;55959;51.244;5.724;2023-07-31T11:05:48;21.20;75.00
68922;DHT22;55959;51.244;5.724;2023-07-31T11:08:18;21.20;75.00
68922;DHT22;55959;51.244;5.724;2023-07-31T11:11:05;21.20;74.80
68922;DHT22;55959;51.244;5.724;2023-07-31T11:13:39;21.30;74.80
68922;DHT22;55959;51.244;5.724;2023-07-31T11:16:14;21.30;74.50
68922;DHT22;55959;51.244;5.724;2023-07-31T11:18:42;21.30;74.40
68922;DHT22;55959;51.244;5.724;2023-07-31T11:21:16;21.30;74.30
68922;DHT22;55959;51.244;5.724;2023-07-31T11:23:51;21.30;74.30
68922;DHT22;55959;51.244;5.724;2023-07-31T11:26:18;21.40;74.10
68922;DHT22;55959;51.244;5.724;2023-07-31T11:28:49;21.40;74.00
68922;DHT22;55959;51.244;5.724;2023-07-31T11:31:15;21.40;73.80
68922;DHT22;55959;51.244;5.724;2023-07-31T11:33:41;21.40;73.80
68922;DHT22;55959;51.244;5.724;2023-07-31T11:36:14;21.50;73.70
68922;DHT22;55959;51.244;5.724;2023-07-31T11:38:41;21.50;73.60
68922;DHT22;55959;51.244;5.724;2023-07-31T11:41:07;21.50;73.60
68922;DHT22;55959;51.244;5.724;2023-07-31T11:43:33;21.50;73.80
68922;DHT22;55959;51.244;5.724;2023-07-31T11:46:01;21.50;73.90
68922;DHT22;55959;51.244;5.724;2023-07-31T11:48:32;21.60;73.80
68922;DHT22;55959;51.244;5.724;2023-07-31T11:51:09;21.60;73.40
68922;DHT22;55959;51.244;5.724;2023-07-31T11:53:50;21.60;73.40
68922;DHT22;55959;51.244;5.724;2023-07-31T11:56:18;21.60;73.40
68922;DHT22;55959;51.244;5.724;2023-07-31T11:58:56;21.60;73.50
68922;DHT22;55959;51.244;5.724;2023-07-31T12:01:24;21.60;73.40
68922;DHT22;55959;51.244;5.724;2023-07-31T12:03:50;21.70;73.60
68922;DHT22;55959;51.244;5.724;2023-07-31T12:06:17;21.70;73.60
68922;DHT22;55959;51.244;5.724;2023-07-31T12:08:46;21.70;73.60
68922;DHT22;55959;51.244;5.724;2023-07-31T12:11:12;21.80;73.40
68922;DHT22;55959;51.244;5.724;2023-07-31T12:13:40;21.80;73.40
68922;DHT22;55959;51.244;5.724;2023-07-31T12:16:06;21.80;73.40
68922;DHT22;55959;51.244;5.724;2023-07-31T12:18:36;21.90;73.20
68922;DHT22;55959;51.244;5.724;2023-07-31T12:21:06;21.90;72.80
68922;DHT22;55959;51.244;5.724;2023-07-31T12:23:35;21.90;72.80
68922;DHT22;55959;51.244;5.724;2023-07-31T12:26:12;22.00;72.70
68922;DHT22;55959;51.244;5.724;2023-07-31T12:28:47;22.00;72.60
68922;DHT22;55959;51.244;5.724;2023-07-31T12:31:19;22.00;72.20
68922;DHT22;55959;51.244;5.724;2023-07-31T12:33:48;22.00;72.10
68922;DHT22;55959;51.244;5.724;2023-07-31T12:36:17;22.00;72.30
68922;DHT22;55959;51.244;5.724;2023-07-31T12:38:46;22.00;72.10
68922;DHT22;55959;51.244;5.724;2023-07-31T12:41:12;22.10;72.10
68922;DHT22;55959;51.244;5.724;2023-07-31T12:43:41;22.10;72.00
68922;DHT22;55959;51.244;5.724;2023-07-31T12:46:08;22.10;71.90
68922;DHT22;55959;51.244;5.724;2023-07-31T12:48:34;22.10;71.60
68922;DHT22;55959;51.244;5.724;2023-07-31T12:51:00;22.10;71.50
68922;DHT22;55959;51.244;5.724;2023-07-31T12:53:27;22.10;71.50
68922;DHT22;55959;51.244;5.724;2023-07-31T12:55:53;22.20;71.50
68922;DHT22;55959;51.244;5.724;2023-07-31T12:58:18;22.20;71.60
68922;DHT22;55959;51.244;5.724;2023-07-31T13:00:44;22.20;71.50
68922;DHT22;55959;51.244;5.724;2023-07-31T13:03:10;22.20;71.40
68922;DHT22;55959;51.244;5.724;2023-07-31T13:05:36;22.20;70.90
68922;DHT22;55959;51.244;5.724;2023-07-31T13:08:02;22.30;70.70
68922;DHT22;55959;51.244;5.724;2023-07-31T13:10:28;22.30;70.70
68922;DHT22;55959;51.244;5.724;2023-07-31T13:12:55;22.30;70.70
68922;DHT22;55959;51.244;5.724;2023-07-31T13:15:20;22.40;70.30
68922;DHT22;55959;51.244;5.724;2023-07-31T13:17:46;22.40;70.20
68922;DHT22;55959;51.244;5.724;2023-07-31T13:20:12;22.40;70.00
68922;DHT22;55959;51.244;5.724;2023-07-31T13:22:38;22.40;69.80
68922;DHT22;55959;51.244;5.724;2023-07-31T13:25:04;22.40;69.60
68922;DHT22;55959;51.244;5.724;2023-07-31T13:27:32;22.40;69.50
68922;DHT22;55959;51.244;5.724;2023-07-31T13:29:57;22.50;69.60
68922;DHT22;55959;51.244;5.724;2023-07-31T13:32:23;22.50;69.20
68922;DHT22;55959;51.244;5.724;2023-07-31T13:34:49;22.50;69.10
68922;DHT22;55959;51.244;5.724;2023-07-31T13:37:15;22.50;69.00
68922;DHT22;55959;51.244;5.724;2023-07-31T13:39:42;22.60;69.10
68922;DHT22;55959;51.244;5.724;2023-07-31T13:42:08;22.50;68.70
68922;DHT22;55959;51.244;5.724;2023-07-31T13:44:37;22.60;68.90
68922;DHT22;55959;51.244;5.724;2023-07-31T13:47:04;22.60;68.70
68922;DHT22;55959;51.244;5.724;2023-07-31T13:49:30;22.60;68.70
68922;DHT22;55959;51.244;5.724;2023-07-31T13:51:59;22.60;68.50
68922;DHT22;55959;51.244;5.724;2023-07-31T13:54:25;22.60;68.50
68922;DHT22;55959;51.244;5.724;2023-07-31T13:56:53;22.60;68.70
68922;DHT22;55959;51.244;5.724;2023-07-31T13:59:20;22.60;68.90
68922;DHT22;55959;51.244;5.724;2023-07-31T14:01:46;22.60;69.10
68922;DHT22;55959;51.244;5.724;2023-07-31T14:04:12;22.60;69.40
68922;DHT22;55959;51.244;5.724;2023-07-31T14:06:38;22.60;69.90
68922;DHT22;55959;51.244;5.724;2023-07-31T14:09:04;22.60;70.20
68922;DHT22;55959;51.244;5.724;2023-07-31T14:11:33;22.60;70.50
68922;DHT22;55959;51.244;5.724;2023-07-31T14:13:59;22.60;70.80
68922;DHT22;55959;51.244;5.724;2023-07-31T14:16:25;22.70;71.00
68922;DHT22;55959;51.244;5.724;2023-07-31T14:18:50;22.70;71.10
68922;DHT22;55959;51.244;5.724;2023-07-31T14:21:18;22.70;71.10
68922;DHT22;55959;51.244;5.724;2023-07-31T14:23:45;22.70;71.00
68922;DHT22;55959;51.244;5.724;2023-07-31T14:26:11;22.70;70.90
68922;DHT22;55959;51.244;5.724;2023-07-31T14:28:37;22.70;70.70
68922;DHT22;55959;51.244;5.724;2023-07-31T14:31:03;22.70;70.60
68922;DHT22;55959;51.244;5.724;2023-07-31T14:33:29;22.60;70.50
68922;DHT22;55959;51.244;5.724;2023-07-31T14:35:54;22.60;70.30
68922;DHT22;55959;51.244;5.724;2023-07-31T14:38:20;22.60;70.50
68922;DHT22;55959;51.244;5.724;2023-07-31T14:40:46;22.60;71.40
68922;DHT22;55959;51.244;5.724;2023-07-31T14:43:12;22.60;70.60
68922;DHT22;55959;51.244;5.724;2023-07-31T14:45:38;22.50;70.70
68922;DHT22;55959;51.244;5.724;2023-07-31T14:48:03;22.60;70.80
68922;DHT22;55959;51.244;5.724;2023-07-31T14:50:31;22.50;70.90
68922;DHT22;55959;51.244;5.724;2023-07-31T14:52:57;22.50;71.10
68922;DHT22;55959;51.244;5.724;2023-07-31T14:55:23;22.50;71.10
68922;DHT22;55959;51.244;5.724;2023-07-31T14:57:49;22.50;71.30
68922;DHT22;55959;51.244;5.724;2023-07-31T15:00:15;22.40;71.30
68922;DHT22;55959;51.244;5.724;2023-07-31T15:02:41;22.50;71.50
68922;DHT22;55959;51.244;5.724;2023-07-31T15:05:07;22.40;71.70
68922;DHT22;55959;51.244;5.724;2023-07-31T15:07:34;22.40;72.70
68922;DHT22;55959;51.244;5.724;2023-07-31T15:10:03;22.30;71.90
68922;DHT22;55959;51.244;5.724;2023-07-31T15:12:29;22.30;72.20
68922;DHT22;55959;51.244;5.724;2023-07-31T15:14:55;22.30;72.50
68922;DHT22;55959;51.244;5.724;2023-07-31T15:17:21;22.30;72.70
68922;DHT22;55959;51.244;5.724;2023-07-31T15:19:47;22.20;72.80
68922;DHT22;55959;51.244;5.724;2023-07-31T15:22:13;22.20;72.70
68922;DHT22;55959;51.244;5.724;2023-07-31T15:24:39;22.20;72.90
68922;DHT22;55959;51.244;5.724;2023-07-31T15:27:05;22.20;72.90
68922;DHT22;55959;51.244;5.724;2023-07-31T15:29:31;22.20;72.90
68922;DHT22;55959;51.244;5.724;2023-07-31T15:31:58;22.10;72.90
68922;DHT22;55959;51.244;5.724;2023-07-31T15:34:24;22.10;73.10
68922;DHT22;55959;51.244;5.724;2023-07-31T15:36:50;22.10;73.30
68922;DHT22;55959;51.244;5.724;2023-07-31T15:39:16;22.10;73.40
68922;DHT22;55959;51.244;5.724;2023-07-31T15:41:41;22.10;73.50